Folegandros, Greece
Current Conditions -  °F | °C
As of 3:50 PM on Monday 20 Oct 2014 (Local Time) from LGSR Reporting Station
Few Clouds Few Clouds  
Wind Chill: 70°   Ceiling: Unl
Heat Index: 70°   Visibility: 6mi
Dew Point: 48°   Wind: 23mph
Humidity: 46%   Direction: 340°NNW
Pressure: 30.03"   Gusts: NA
Location:  36.65°N, 24.87°E
Report Text: LGSR 201250Z 34020KT 9999 FEW025 21/09 Q1017
Loading
Personal Weather Stations






























Interactive Weather Map
Tropical Storm Tracking
New forecast layout! Learn more

10-Day Weather Forecast

Advertisements
Track Severe Weather on mobile